createdAt,value
2023-02-02T00:01:21.512Z,79.29
2023-02-02T00:03:51.709Z,78.88
2023-02-02T00:06:20.326Z,78.91
2023-02-02T00:08:47.360Z,78.95
2023-02-02T00:11:15.260Z,79.17
2023-02-02T00:13:42.587Z,78.84
2023-02-02T00:16:30.733Z,78.28
2023-02-02T00:19:00.135Z,78.02
2023-02-02T00:21:27.858Z,77.63
2023-02-02T00:23:54.844Z,78.07
2023-02-02T00:26:21.976Z,78.35
2023-02-02T00:28:49.002Z,78.22
2023-02-02T00:31:16.311Z,78.32
2023-02-02T00:33:48.001Z,78.01
2023-02-02T00:36:15.657Z,77.91
2023-02-02T00:38:42.780Z,77.73
2023-02-02T00:41:10.097Z,77.88
2023-02-02T00:43:37.109Z,78.03
2023-02-02T00:46:04.328Z,77.59
2023-02-02T00:48:31.493Z,77.62
2023-02-02T00:50:58.439Z,77.77
2023-02-02T00:53:25.395Z,77.87
2023-02-02T00:55:52.327Z,77.65
2023-02-02T00:58:19.350Z,77.63
2023-02-02T01:00:47.814Z,77.79
2023-02-02T01:03:15.719Z,77.94
2023-02-02T01:05:42.902Z,77.83
2023-02-02T01:08:10.424Z,77.96
2023-02-02T01:10:37.463Z,78.15
2023-02-02T01:13:04.599Z,78.10
2023-02-02T01:15:31.747Z,78.22
2023-02-02T01:17:58.772Z,78.21
2023-02-02T01:20:25.871Z,78.18
2023-02-02T01:22:52.883Z,78.08
2023-02-02T01:25:19.956Z,77.98
2023-02-02T01:27:47.018Z,78.01
2023-02-02T01:30:14.172Z,78.00
2023-02-02T01:32:41.215Z,77.69
2023-02-02T01:35:09.672Z,77.50
2023-02-02T01:37:38.271Z,77.32
2023-02-02T01:40:06.494Z,77.40
2023-02-02T01:42:33.473Z,77.21
2023-02-02T01:45:16.410Z,77.24
2023-02-02T01:47:48.385Z,77.51
2023-02-02T01:50:16.960Z,77.24
2023-02-02T01:52:48.491Z,77.20
2023-02-02T01:55:19.834Z,77.20
2023-02-02T01:57:58.953Z,77.00
2023-02-02T02:00:27.234Z,77.03
2023-02-02T02:02:58.808Z,77.27
2023-02-02T02:05:31.423Z,76.94
2023-02-02T02:08:21.307Z,76.93
2023-02-02T02:10:49.178Z,76.99
2023-02-02T02:13:18.977Z,76.96
2023-02-02T02:16:18.765Z,76.91
2023-02-02T02:18:54.899Z,76.89
2023-02-02T02:21:47.843Z,76.36
2023-02-02T02:25:05.832Z,76.44
2023-02-02T02:28:14.039Z,76.19
2023-02-02T02:30:55.368Z,76.25
2023-02-02T02:33:46.552Z,75.99
2023-02-02T02:36:20.455Z,76.08
2023-02-02T02:38:56.163Z,76.18
2023-02-02T02:41:30.424Z,76.19
2023-02-02T02:44:07.797Z,76.20
2023-02-02T02:46:36.293Z,76.34
2023-02-02T02:49:03.873Z,76.71
2023-02-02T02:51:45.099Z,77.02
2023-02-02T02:54:23.867Z,76.68
2023-02-02T02:57:09.792Z,76.86
2023-02-02T02:59:58.419Z,76.83
2023-02-02T03:02:56.540Z,76.94
2023-02-02T03:05:39.033Z,76.90
2023-02-02T03:08:37.384Z,76.87
2023-02-02T03:11:07.199Z,77.02
2023-02-02T03:13:34.363Z,77.14
2023-02-02T03:16:01.651Z,77.08
2023-02-02T03:18:30.823Z,76.48
2023-02-02T03:20:58.331Z,76.18
2023-02-02T03:23:25.849Z,75.94
2023-02-02T03:25:53.896Z,75.90
2023-02-02T03:28:22.645Z,76.17
2023-02-02T03:30:50.650Z,75.96
2023-02-02T03:33:18.222Z,75.76
2023-02-02T03:35:45.397Z,75.76
2023-02-02T03:38:12.511Z,75.76
2023-02-02T03:40:40.141Z,76.19
2023-02-02T03:43:07.943Z,76.19
2023-02-02T03:45:35.016Z,76.46
2023-02-02T03:48:05.392Z,76.71
2023-02-02T03:50:33.038Z,77.03
2023-02-02T03:53:00.026Z,76.99
2023-02-02T03:55:27.004Z,76.89
2023-02-02T03:57:53.917Z,76.92
2023-02-02T04:00:20.999Z,77.10
2023-02-02T04:02:48.136Z,77.10
2023-02-02T04:05:15.304Z,77.28
2023-02-02T04:07:42.360Z,77.14
2023-02-02T04:10:10.004Z,77.44
2023-02-02T04:12:36.989Z,77.90
2023-02-02T04:15:04.566Z,78.16
2023-02-02T04:17:31.653Z,78.73
2023-02-02T04:19:58.695Z,78.94
2023-02-02T04:22:25.984Z,78.32
2023-02-02T04:24:53.261Z,78.43
2023-02-02T04:27:20.399Z,79.34
2023-02-02T04:29:47.344Z,79.28
2023-02-02T04:32:18.116Z,79.57
2023-02-02T04:34:45.213Z,79.96
2023-02-02T04:37:12.241Z,79.61
2023-02-02T04:39:39.286Z,79.63
2023-02-02T04:42:06.263Z,79.33
2023-02-02T04:44:33.281Z,79.02
2023-02-02T04:47:00.273Z,78.97
2023-02-02T04:49:27.321Z,79.21
2023-02-02T04:51:54.396Z,79.07
2023-02-02T04:54:21.458Z,79.12
2023-02-02T04:56:48.483Z,79.44
2023-02-02T04:59:15.370Z,79.04
2023-02-02T05:01:42.361Z,78.84
2023-02-02T05:04:11.067Z,78.88
2023-02-02T05:06:38.158Z,79.10
2023-02-02T05:09:05.075Z,79.00
2023-02-02T05:11:32.133Z,79.31
2023-02-02T05:13:59.130Z,79.62
2023-02-02T05:16:28.820Z,79.56
2023-02-02T05:18:58.936Z,79.54
2023-02-02T05:21:26.422Z,79.87
2023-02-02T05:23:53.417Z,80.04
2023-02-02T05:26:22.958Z,80.32
2023-02-02T05:28:50.055Z,80.33
2023-02-02T05:31:17.696Z,80.31
2023-02-02T05:33:45.085Z,80.26
2023-02-02T05:36:12.748Z,80.25
2023-02-02T05:38:39.725Z,80.18
2023-02-02T05:41:06.739Z,80.16
2023-02-02T05:43:33.714Z,80.05
2023-02-02T05:46:01.105Z,79.98
2023-02-02T05:48:28.459Z,79.95
2023-02-02T05:51:09.912Z,79.80
2023-02-02T05:53:37.034Z,79.71
2023-02-02T05:56:04.461Z,79.73
2023-02-02T05:58:31.481Z,79.65
2023-02-02T06:00:58.421Z,79.42
2023-02-02T06:03:25.476Z,79.36
2023-02-02T06:05:52.537Z,79.15
2023-02-02T06:08:19.461Z,79.11
2023-02-02T06:10:46.619Z,79.04
2023-02-02T06:13:13.625Z,78.75
2023-02-02T06:15:42.564Z,78.88
2023-02-02T06:18:09.977Z,78.43
2023-02-02T06:20:37.314Z,78.11
2023-02-02T06:23:04.824Z,77.71
2023-02-02T06:25:33.766Z,77.46
2023-02-02T06:28:00.996Z,77.34
2023-02-02T06:30:28.103Z,77.79
2023-02-02T06:32:55.174Z,78.10
2023-02-02T06:35:22.686Z,78.03
2023-02-02T06:37:49.861Z,78.28
2023-02-02T06:40:17.257Z,78.21
2023-02-02T06:42:44.232Z,78.36
2023-02-02T06:45:11.551Z,78.38
2023-02-02T06:47:38.484Z,78.52
2023-02-02T06:50:05.764Z,78.64
2023-02-02T06:52:32.668Z,78.81
2023-02-02T06:54:59.603Z,79.11
2023-02-02T06:57:26.711Z,79.97
2023-02-02T06:59:53.651Z,80.57
2023-02-02T07:02:22.759Z,80.34
2023-02-02T07:04:50.900Z,79.96
2023-02-02T07:07:17.953Z,79.52
2023-02-02T07:09:44.880Z,79.45
2023-02-02T07:12:11.817Z,79.38
2023-02-02T07:14:38.794Z,79.41
2023-02-02T07:17:05.911Z,79.78
2023-02-02T07:19:33.180Z,79.85
2023-02-02T07:22:00.388Z,80.63
2023-02-02T07:24:27.512Z,80.98
2023-02-02T07:26:54.640Z,80.73
2023-02-02T07:29:21.524Z,80.34
2023-02-02T07:31:48.649Z,80.18
2023-02-02T07:34:15.662Z,79.79
2023-02-02T07:36:43.138Z,78.93
2023-02-02T07:39:11.204Z,78.90
2023-02-02T07:41:38.541Z,78.66
2023-02-02T07:44:14.992Z,78.36
2023-02-02T07:46:43.957Z,78.50
2023-02-02T07:49:16.977Z,78.38
2023-02-02T08:03:24.420Z,76.70
2023-02-02T08:05:52.805Z,76.15
2023-02-02T08:08:21.174Z,75.51
2023-02-02T08:10:51.046Z,75.52
2023-02-02T08:13:20.045Z,75.57
2023-02-02T08:15:48.471Z,75.55
2023-02-02T08:18:17.261Z,75.50
2023-02-02T08:20:45.661Z,75.24
2023-02-02T08:23:16.211Z,75.60
2023-02-02T08:25:44.503Z,75.21
2023-02-02T08:28:12.908Z,74.81
2023-02-02T08:30:41.331Z,74.98
2023-02-02T08:33:09.874Z,74.39
2023-02-02T08:35:43.039Z,74.84
2023-02-02T08:38:11.422Z,75.23
2023-02-02T08:40:39.784Z,75.31
2023-02-02T08:43:08.491Z,75.47
2023-02-02T08:46:02.972Z,75.50
2023-02-02T08:48:31.654Z,75.93
2023-02-02T08:51:02.868Z,76.34
2023-02-02T08:53:45.945Z,76.43
2023-02-02T08:56:16.884Z,76.84
2023-02-02T08:58:49.671Z,76.70
2023-02-02T09:01:21.140Z,76.34
2023-02-02T09:03:53.195Z,76.36
2023-02-02T09:06:21.862Z,76.13
2023-02-02T09:08:50.267Z,75.74
2023-02-02T09:11:19.843Z,75.89
2023-02-02T09:13:49.956Z,75.99
2023-02-02T09:16:18.891Z,75.54
2023-02-02T09:18:48.175Z,75.25
2023-02-02T09:21:18.601Z,73.99
2023-02-02T09:23:49.051Z,72.10
2023-02-02T09:26:20.617Z,70.43
2023-02-02T09:28:52.184Z,70.31
2023-02-02T09:31:20.614Z,70.25
2023-02-02T09:33:49.458Z,70.78
2023-02-02T09:36:24.862Z,71.47
2023-02-02T09:38:53.317Z,71.51
2023-02-02T09:41:27.614Z,71.53
2023-02-02T09:44:02.181Z,72.25
2023-02-02T09:46:45.528Z,72.35
2023-02-02T09:49:17.826Z,72.26
2023-02-02T09:51:59.526Z,72.04
2023-02-02T09:54:39.050Z,72.11
2023-02-02T09:57:17.319Z,72.03
2023-02-02T09:59:49.458Z,72.54
2023-02-02T10:02:39.000Z,72.51
2023-02-02T10:05:45.561Z,72.44
2023-02-02T10:08:34.305Z,71.84
2023-02-02T10:11:24.960Z,72.23
2023-02-02T10:13:57.763Z,73.07
2023-02-02T10:16:27.351Z,73.71
2023-02-02T10:19:10.178Z,74.54
2023-02-02T10:21:47.119Z,74.87
2023-02-02T10:24:24.527Z,75.03
2023-02-02T10:26:59.577Z,76.34
2023-02-02T10:30:01.603Z,76.99
2023-02-02T10:32:50.802Z,77.76
2023-02-02T10:35:34.148Z,78.11
2023-02-02T10:38:02.452Z,78.19
2023-02-02T10:40:58.295Z,77.99
2023-02-02T10:43:48.193Z,77.99
2023-02-02T10:46:34.952Z,77.70
2023-02-02T10:49:21.064Z,77.19
2023-02-02T10:52:01.011Z,77.82
2023-02-02T10:54:57.308Z,77.86
2023-02-02T10:57:47.104Z,78.16
2023-02-02T11:00:46.886Z,79.00
2023-02-02T11:03:19.870Z,78.31
2023-02-02T11:06:07.153Z,78.07
2023-02-02T11:08:45.696Z,78.19
2023-02-02T11:11:34.671Z,77.73
2023-02-02T11:14:45.621Z,77.63
2023-02-02T11:17:23.674Z,76.76
2023-02-02T11:19:52.780Z,76.63
2023-02-02T11:22:32.721Z,74.94
2023-02-02T11:25:07.728Z,74.49
2023-02-02T11:27:41.666Z,73.80
2023-02-02T11:30:28.476Z,73.92
2023-02-02T11:32:56.844Z,73.41
2023-02-02T11:35:32.136Z,72.44
2023-02-02T11:38:10.530Z,70.85
2023-02-02T11:40:54.093Z,69.85
2023-02-02T11:43:30.470Z,69.78
2023-02-02T11:46:02.811Z,70.24
2023-02-02T11:48:36.286Z,68.97
2023-02-02T11:51:06.818Z,69.93
2023-02-02T11:53:45.119Z,68.87
2023-02-02T11:56:25.961Z,69.13
2023-02-02T11:58:56.873Z,68.58
2023-02-02T12:01:25.221Z,67.08
2023-02-02T12:04:01.947Z,65.99
2023-02-02T12:06:33.431Z,66.08
2023-02-02T12:09:10.423Z,66.01
2023-02-02T12:11:54.605Z,66.23
2023-02-02T12:14:23.077Z,66.32
2023-02-02T12:17:06.742Z,64.29
2023-02-02T12:19:46.532Z,65.60
2023-02-02T12:22:52.796Z,65.26
2023-02-02T12:25:43.246Z,64.51
2023-02-02T12:28:41.736Z,63.18
2023-02-02T12:31:26.792Z,62.99
2023-02-02T12:34:10.667Z,62.35
2023-02-02T12:36:57.242Z,62.88
2023-02-02T12:39:40.354Z,61.77
2023-02-02T12:42:34.287Z,61.44
2023-02-02T12:45:15.209Z,61.78
2023-02-02T12:48:03.005Z,62.41
2023-02-02T12:51:01.655Z,61.83
2023-02-02T12:54:34.797Z,60.94
2023-02-02T12:57:08.714Z,61.23
2023-02-02T12:59:58.129Z,61.95
2023-02-02T13:03:05.189Z,60.78
2023-02-02T13:06:03.186Z,60.48
2023-02-02T13:08:57.847Z,59.18
2023-02-02T13:11:52.067Z,59.14
2023-02-02T13:14:26.308Z,58.40
2023-02-02T13:17:00.229Z,57.91
2023-02-02T13:19:38.623Z,57.51
2023-02-02T13:22:21.705Z,56.45
2023-02-02T13:24:53.271Z,56.13
2023-02-02T13:27:23.813Z,55.97
2023-02-02T13:29:58.236Z,55.53
2023-02-02T13:32:41.267Z,54.78
2023-02-02T13:35:34.776Z,55.53
2023-02-02T13:38:15.023Z,55.05
2023-02-02T13:40:44.424Z,55.85
2023-02-02T13:43:15.986Z,56.62
2023-02-02T13:45:47.287Z,56.80
2023-02-02T13:48:47.643Z,57.12
2023-02-02T13:51:27.996Z,58.18
2023-02-02T13:54:08.781Z,58.83
2023-02-02T13:56:57.388Z,59.52
2023-02-02T13:59:54.647Z,59.63
2023-02-02T14:02:35.028Z,59.84
2023-02-02T14:05:05.973Z,60.04
2023-02-02T14:07:34.165Z,60.45
2023-02-02T14:10:04.618Z,60.28
2023-02-02T14:12:35.619Z,60.63
2023-02-02T14:15:07.215Z,60.88
2023-02-02T14:17:50.249Z,61.11
2023-02-02T14:20:40.548Z,61.53
2023-02-02T14:23:51.437Z,61.71
2023-02-02T14:26:46.360Z,61.63
2023-02-02T14:29:31.784Z,61.94
2023-02-02T14:32:03.089Z,61.83
2023-02-02T14:34:39.999Z,62.18
2023-02-02T14:37:20.675Z,62.31
2023-02-02T14:40:07.778Z,62.90
2023-02-02T14:43:09.424Z,62.69
2023-02-02T14:45:42.551Z,62.98
2023-02-02T14:48:20.035Z,63.28
2023-02-02T14:50:50.159Z,63.30
2023-02-02T14:53:24.230Z,63.24
2023-02-02T14:55:57.572Z,63.66
2023-02-02T14:58:46.285Z,63.18
2023-02-02T15:01:17.682Z,63.75
2023-02-02T15:03:53.840Z,64.05
2023-02-02T15:06:43.343Z,64.22
2023-02-02T15:09:21.109Z,64.61
2023-02-02T15:12:04.972Z,64.83
2023-02-02T15:14:39.113Z,64.80
2023-02-02T15:17:28.651Z,64.97
2023-02-02T15:20:05.834Z,65.06
2023-02-02T15:23:01.039Z,65.15
2023-02-02T15:25:32.310Z,65.02
2023-02-02T15:28:11.550Z,65.23
2023-02-02T15:30:44.796Z,65.77
2023-02-02T15:33:36.873Z,65.35
2023-02-02T15:36:14.415Z,65.31
2023-02-02T15:38:47.060Z,65.56
2023-02-02T15:41:28.737Z,65.51
2023-02-02T15:43:57.157Z,65.76
2023-02-02T15:46:36.009Z,65.91
2023-02-02T15:49:36.022Z,65.44
2023-02-02T15:52:17.270Z,65.04
2023-02-02T15:54:50.627Z,64.64
2023-02-02T15:57:29.720Z,64.09
2023-02-02T15:59:58.751Z,63.99
2023-02-02T16:02:40.048Z,63.88
2023-02-02T16:05:29.919Z,63.45
2023-02-02T16:08:07.797Z,63.47
2023-02-02T16:10:36.346Z,63.49
2023-02-02T16:13:04.775Z,62.74
2023-02-02T16:15:33.590Z,62.28
2023-02-02T16:18:13.675Z,62.34
2023-02-02T16:20:43.443Z,62.37
2023-02-02T16:23:15.300Z,62.69
2023-02-02T16:25:54.903Z,63.03
2023-02-02T16:28:23.996Z,63.38
2023-02-02T16:30:53.302Z,63.69
2023-02-02T16:33:30.834Z,63.98
2023-02-02T16:35:59.106Z,64.55
2023-02-02T16:38:33.952Z,64.93
2023-02-02T16:41:09.796Z,65.12
2023-02-02T16:43:40.194Z,65.67
2023-02-02T16:46:12.915Z,65.57
2023-02-02T16:48:42.991Z,66.30
2023-02-02T16:51:17.123Z,66.79
2023-02-02T16:53:51.713Z,67.14
2023-02-02T16:56:28.943Z,66.77
2023-02-02T16:59:00.483Z,67.38
2023-02-02T17:01:51.174Z,67.25
2023-02-02T17:04:26.999Z,67.32
2023-02-02T17:06:58.346Z,67.28
2023-02-02T17:09:35.904Z,67.38
2023-02-02T17:12:30.504Z,67.38
2023-02-02T17:15:24.028Z,67.43
2023-02-02T17:17:52.814Z,67.44
2023-02-02T17:20:22.056Z,67.57
2023-02-02T17:23:01.592Z,67.72
2023-02-02T17:25:42.744Z,67.70
2023-02-02T17:28:17.953Z,67.67
2023-02-02T17:30:49.514Z,67.55
2023-02-02T17:33:19.470Z,66.98
2023-02-02T17:35:56.155Z,67.09
2023-02-02T17:38:27.920Z,67.04
2023-02-02T17:41:01.320Z,67.22
2023-02-02T17:43:32.416Z,67.67
2023-02-02T17:46:03.350Z,67.66
2023-02-02T17:48:31.844Z,67.87
2023-02-02T17:51:03.333Z,67.86
2023-02-02T17:53:33.527Z,67.97
2023-02-02T17:56:02.089Z,67.97
2023-02-02T17:58:30.498Z,67.73
2023-02-02T18:00:59.445Z,67.35
2023-02-02T18:03:34.226Z,67.34
2023-02-02T18:06:03.972Z,67.54
2023-02-02T18:08:33.715Z,67.81
2023-02-02T18:11:02.572Z,67.70
2023-02-02T18:13:31.127Z,67.81
2023-02-02T18:16:00.114Z,68.15
2023-02-02T18:18:30.014Z,67.69
2023-02-02T18:20:59.176Z,68.15
2023-02-02T18:23:27.690Z,67.31
2023-02-02T18:25:56.248Z,67.37
2023-02-02T18:28:24.596Z,67.56
2023-02-02T18:30:53.024Z,67.59
2023-02-02T18:33:23.504Z,67.50
2023-02-02T18:35:51.918Z,68.03
2023-02-02T18:38:20.315Z,67.98
2023-02-02T18:40:57.083Z,68.71
2023-02-02T18:43:25.468Z,68.89
2023-02-02T18:46:02.477Z,69.23
2023-02-02T18:48:31.926Z,69.19
2023-02-02T18:51:06.994Z,69.20
2023-02-02T18:53:35.656Z,69.59
2023-02-02T18:56:05.994Z,70.19
2023-02-02T18:58:35.818Z,70.03
2023-02-02T19:01:19.308Z,70.03
2023-02-02T19:03:49.576Z,70.16
2023-02-02T19:06:37.805Z,70.45
2023-02-02T19:09:07.002Z,70.47
2023-02-02T19:11:43.148Z,70.64
2023-02-02T19:14:19.074Z,70.93
2023-02-02T19:16:49.225Z,71.11
2023-02-02T19:19:22.327Z,72.14
2023-02-02T19:22:06.935Z,72.67
2023-02-02T19:24:39.455Z,72.51
2023-02-02T19:27:26.868Z,72.68
2023-02-02T19:30:03.919Z,72.36
2023-02-02T19:32:34.973Z,72.94
2023-02-02T19:35:15.731Z,73.07
2023-02-02T19:37:46.505Z,74.57
2023-02-02T19:40:19.405Z,75.34
2023-02-02T19:42:54.281Z,75.42
2023-02-02T19:45:22.711Z,77.03
2023-02-02T19:47:52.362Z,77.44
2023-02-02T19:50:24.934Z,78.46
2023-02-02T19:52:55.964Z,78.96
2023-02-02T19:55:28.455Z,78.87
2023-02-02T19:58:11.682Z,79.12
2023-02-02T20:00:41.594Z,78.95
2023-02-02T20:03:23.697Z,79.01
2023-02-02T20:05:53.723Z,79.66
2023-02-02T20:08:41.788Z,79.48
2023-02-02T20:11:16.239Z,80.15
2023-02-02T20:13:48.616Z,80.71
2023-02-02T20:16:25.327Z,80.73
2023-02-02T20:18:58.755Z,80.82
2023-02-02T20:21:40.817Z,80.31
2023-02-02T20:24:29.058Z,80.24
2023-02-02T20:27:01.361Z,80.26
2023-02-02T20:29:42.770Z,80.19
2023-02-02T20:32:37.242Z,80.04
2023-02-02T20:35:40.071Z,80.75
2023-02-02T20:38:39.315Z,81.14
2023-02-02T20:41:07.763Z,81.71
2023-02-02T20:43:36.286Z,82.28
2023-02-02T20:46:04.976Z,82.87
2023-02-02T20:48:33.419Z,83.39
2023-02-02T20:51:01.773Z,83.27
2023-02-02T20:53:30.382Z,83.81
2023-02-02T20:56:00.376Z,84.29
2023-02-02T20:58:28.708Z,84.75
2023-02-02T21:00:57.084Z,85.35
2023-02-02T21:03:25.487Z,85.80
2023-02-02T21:05:53.803Z,85.66
2023-02-02T21:08:22.164Z,85.65
2023-02-02T21:10:50.442Z,86.20
2023-02-02T21:13:18.705Z,86.43
2023-02-02T21:15:47.249Z,87.16
2023-02-02T21:18:15.616Z,87.35
2023-02-02T21:20:44.018Z,87.44
2023-02-02T21:23:12.429Z,87.84
2023-02-02T21:25:40.725Z,88.24
2023-02-02T21:28:08.960Z,88.16
2023-02-02T21:30:37.360Z,88.10
2023-02-02T21:33:06.885Z,88.29
2023-02-02T21:35:35.683Z,88.67
2023-02-02T21:38:13.535Z,88.84
2023-02-02T21:40:42.288Z,89.17
2023-02-02T21:43:17.201Z,88.88
2023-02-02T21:45:50.875Z,89.40
2023-02-02T21:48:19.164Z,89.25
2023-02-02T21:50:47.970Z,89.37
2023-02-02T21:53:20.461Z,89.64
2023-02-02T21:56:00.271Z,89.56
2023-02-02T21:58:42.302Z,89.73
2023-02-02T22:01:16.995Z,89.77
2023-02-02T22:03:46.979Z,90.28
2023-02-02T22:06:21.541Z,90.27
2023-02-02T22:08:51.137Z,90.36
2023-02-02T22:11:29.820Z,90.33
2023-02-02T22:14:19.881Z,90.45
2023-02-02T22:16:56.098Z,90.51
2023-02-02T22:19:37.837Z,90.31
2023-02-02T22:22:09.082Z,90.03
2023-02-02T22:24:37.391Z,90.00
2023-02-02T22:27:21.827Z,90.27
2023-02-02T22:30:00.928Z,90.30
2023-02-02T22:32:29.233Z,90.27
2023-02-02T22:34:57.575Z,90.52
2023-02-02T22:37:25.884Z,90.71
2023-02-02T22:39:54.163Z,90.67
2023-02-02T22:42:22.462Z,90.81
2023-02-02T22:44:51.150Z,90.80
2023-02-02T22:47:19.465Z,90.51
2023-02-02T22:49:47.761Z,90.67
2023-02-02T22:52:16.069Z,90.80
2023-02-02T22:54:44.398Z,90.66
2023-02-02T22:57:12.722Z,90.56
2023-02-02T22:59:41.081Z,90.95
2023-02-02T23:02:09.402Z,90.71
2023-02-02T23:04:37.757Z,90.57
2023-02-02T23:07:06.109Z,90.42
2023-02-02T23:09:34.411Z,90.20
2023-02-02T23:12:02.728Z,89.68
2023-02-02T23:14:31.086Z,89.29
2023-02-02T23:16:59.439Z,88.86
2023-02-02T23:19:27.769Z,88.39
2023-02-02T23:21:56.062Z,88.20
2023-02-02T23:24:24.489Z,87.97
2023-02-02T23:26:52.818Z,87.37
2023-02-02T23:29:21.128Z,87.22
2023-02-02T23:31:49.527Z,87.12
2023-02-02T23:34:17.852Z,87.00
2023-02-02T23:36:46.336Z,87.07
2023-02-02T23:39:14.675Z,86.85
2023-02-02T23:41:42.969Z,86.75
2023-02-02T23:44:11.316Z,86.56
2023-02-02T23:46:40.373Z,86.01
2023-02-02T23:49:09.218Z,85.72
2023-02-02T23:51:37.643Z,85.35
2023-02-02T23:54:06.617Z,85.30
2023-02-02T23:56:35.009Z,85.58
2023-02-02T23:59:03.424Z,85.37
